sensor_id;sensor_type;location;lat;lon;timestamp;pressure;altitude;pressure_sealevel;temperature;humidity
76553;BME280;65395;53.168;18.156;2023-07-29T00:01:10;100302.38;;;14.46;85.22
76553;BME280;65395;53.168;18.156;2023-07-29T00:03:37;100304.21;;;14.44;85.00
76553;BME280;65395;53.168;18.156;2023-07-29T00:06:04;100304.37;;;14.41;84.85
76553;BME280;65395;53.168;18.156;2023-07-29T00:08:31;100308.15;;;14.37;84.59
76553;BME280;65395;53.168;18.156;2023-07-29T00:10:57;100307.23;;;14.33;84.71
76553;BME280;65395;53.168;18.156;2023-07-29T00:13:24;100307.11;;;14.31;84.97
76553;BME280;65395;53.168;18.156;2023-07-29T00:15:53;100309.66;;;14.28;84.97
76553;BME280;65395;53.168;18.156;2023-07-29T00:18:22;100308.60;;;14.25;84.88
76553;BME280;65395;53.168;18.156;2023-07-29T00:20:50;100309.87;;;14.19;84.39
76553;BME280;65395;53.168;18.156;2023-07-29T00:23:17;100308.96;;;14.12;84.23
76553;BME280;65395;53.168;18.156;2023-07-29T00:25:46;100309.05;;;14.03;84.01
76553;BME280;65395;53.168;18.156;2023-07-29T00:28:13;100309.44;;;13.94;83.91
76553;BME280;65395;53.168;18.156;2023-07-29T00:30:40;100309.83;;;13.87;84.17
76553;BME280;65395;53.168;18.156;2023-07-29T00:33:07;100310.95;;;13.80;84.14
76553;BME280;65395;53.168;18.156;2023-07-29T00:35:34;100312.06;;;13.72;83.96
76553;BME280;65395;53.168;18.156;2023-07-29T00:38:01;100311.56;;;13.64;83.90
76553;BME280;65395;53.168;18.156;2023-07-29T00:40:29;100314.92;;;13.57;83.94
76553;BME280;65395;53.168;18.156;2023-07-29T00:42:56;100318.73;;;13.50;84.13
76553;BME280;65395;53.168;18.156;2023-07-29T00:45:24;100317.86;;;13.43;84.08
76553;BME280;65395;53.168;18.156;2023-07-29T00:47:52;100318.05;;;13.35;84.12
76553;BME280;65395;53.168;18.156;2023-07-29T00:50:20;100315.83;;;13.27;84.13
76553;BME280;65395;53.168;18.156;2023-07-29T00:52:49;100315.95;;;13.22;84.08
76553;BME280;65395;53.168;18.156;2023-07-29T00:55:16;100322.02;;;13.15;84.15
76553;BME280;65395;53.168;18.156;2023-07-29T00:57:43;100321.93;;;13.09;84.35
76553;BME280;65395;53.168;18.156;2023-07-29T01:00:15;100314.96;;;13.04;84.52
76553;BME280;65395;53.168;18.156;2023-07-29T01:02:43;100311.27;;;12.99;84.53
76553;BME280;65395;53.168;18.156;2023-07-29T01:05:12;100313.17;;;12.94;84.39
76553;BME280;65395;53.168;18.156;2023-07-29T01:07:53;100315.80;;;12.89;84.54
76553;BME280;65395;53.168;18.156;2023-07-29T01:10:37;100312.61;;;12.84;84.53
76553;BME280;65395;53.168;18.156;2023-07-29T01:13:17;100310.92;;;12.79;84.52
76553;BME280;65395;53.168;18.156;2023-07-29T01:15:54;100307.58;;;12.74;84.62
76553;BME280;65395;53.168;18.156;2023-07-29T01:18:26;100305.45;;;12.68;84.55
76553;BME280;65395;53.168;18.156;2023-07-29T01:20:59;100309.60;;;12.64;84.38
76553;BME280;65395;53.168;18.156;2023-07-29T01:23:34;100309.80;;;12.58;84.39
76553;BME280;65395;53.168;18.156;2023-07-29T01:26:02;100308.29;;;12.54;84.38
76553;BME280;65395;53.168;18.156;2023-07-29T01:28:30;100309.04;;;12.49;84.46
76553;BME280;65395;53.168;18.156;2023-07-29T01:31:19;100304.55;;;12.43;84.65
76553;BME280;65395;53.168;18.156;2023-07-29T01:33:57;100302.97;;;12.39;84.99
76553;BME280;65395;53.168;18.156;2023-07-29T01:36:27;100304.33;;;12.36;85.03
76553;BME280;65395;53.168;18.156;2023-07-29T01:38:57;100301.80;;;12.32;84.84
76553;BME280;65395;53.168;18.156;2023-07-29T01:41:24;100298.56;;;12.28;84.91
76553;BME280;65395;53.168;18.156;2023-07-29T01:43:52;100296.00;;;12.23;84.82
76553;BME280;65395;53.168;18.156;2023-07-29T01:46:20;100296.16;;;12.18;84.96
76553;BME280;65395;53.168;18.156;2023-07-29T01:48:48;100301.94;;;12.16;85.24
76553;BME280;65395;53.168;18.156;2023-07-29T01:51:15;100299.51;;;12.14;85.31
76553;BME280;65395;53.168;18.156;2023-07-29T01:53:41;100304.38;;;12.13;85.45
76553;BME280;65395;53.168;18.156;2023-07-29T01:56:09;100306.26;;;12.12;85.19
76553;BME280;65395;53.168;18.156;2023-07-29T01:58:40;100308.45;;;12.11;85.16
76553;BME280;65395;53.168;18.156;2023-07-29T02:01:07;100308.60;;;12.09;85.10
76553;BME280;65395;53.168;18.156;2023-07-29T02:03:34;100310.05;;;12.07;85.12
76553;BME280;65395;53.168;18.156;2023-07-29T02:06:01;100311.73;;;12.07;85.29
76553;BME280;65395;53.168;18.156;2023-07-29T02:08:27;100313.69;;;12.06;85.43
76553;BME280;65395;53.168;18.156;2023-07-29T02:10:54;100317.36;;;12.06;85.14
76553;BME280;65395;53.168;18.156;2023-07-29T02:13:21;100321.48;;;12.04;84.95
76553;BME280;65395;53.168;18.156;2023-07-29T02:15:47;100321.31;;;12.02;84.95
76553;BME280;65395;53.168;18.156;2023-07-29T02:18:14;100320.46;;;12.00;84.86
76553;BME280;65395;53.168;18.156;2023-07-29T02:20:41;100322.05;;;11.97;84.81
76553;BME280;65395;53.168;18.156;2023-07-29T02:23:15;100321.63;;;11.93;84.83
76553;BME280;65395;53.168;18.156;2023-07-29T02:25:43;100323.53;;;11.89;84.81
76553;BME280;65395;53.168;18.156;2023-07-29T02:28:10;100319.91;;;11.86;85.05
76553;BME280;65395;53.168;18.156;2023-07-29T02:30:41;100319.74;;;11.84;85.04
76553;BME280;65395;53.168;18.156;2023-07-29T02:33:08;100318.27;;;11.82;84.89
76553;BME280;65395;53.168;18.156;2023-07-29T02:35:34;100320.13;;;11.79;84.82
76553;BME280;65395;53.168;18.156;2023-07-29T02:38:01;100321.20;;;11.74;84.78
76553;BME280;65395;53.168;18.156;2023-07-29T02:40:28;100322.67;;;11.72;85.14
76553;BME280;65395;53.168;18.156;2023-07-29T02:42:56;100321.55;;;11.71;85.04
76553;BME280;65395;53.168;18.156;2023-07-29T02:45:22;100322.02;;;11.68;85.21
76553;BME280;65395;53.168;18.156;2023-07-29T02:47:49;100321.15;;;11.68;85.25
76553;BME280;65395;53.168;18.156;2023-07-29T02:50:16;100320.70;;;11.65;85.04
76553;BME280;65395;53.168;18.156;2023-07-29T02:52:43;100325.23;;;11.63;85.22
76553;BME280;65395;53.168;18.156;2023-07-29T02:55:09;100322.06;;;11.61;85.55
76553;BME280;65395;53.168;18.156;2023-07-29T02:57:36;100326.89;;;11.60;85.42
76553;BME280;65395;53.168;18.156;2023-07-29T03:00:03;100331.91;;;11.59;85.24
76553;BME280;65395;53.168;18.156;2023-07-29T03:02:31;100334.58;;;11.57;85.07
76553;BME280;65395;53.168;18.156;2023-07-29T03:04:57;100338.90;;;11.54;85.09
76553;BME280;65395;53.168;18.156;2023-07-29T03:07:24;100346.27;;;11.52;85.08
76553;BME280;65395;53.168;18.156;2023-07-29T03:09:50;100349.70;;;11.47;84.91
76553;BME280;65395;53.168;18.156;2023-07-29T03:12:17;100354.08;;;11.45;84.93
76553;BME280;65395;53.168;18.156;2023-07-29T03:14:47;100353.85;;;11.44;85.06
76553;BME280;65395;53.168;18.156;2023-07-29T03:17:15;100353.28;;;11.43;85.04
76553;BME280;65395;53.168;18.156;2023-07-29T03:19:42;100351.00;;;11.43;85.12
76553;BME280;65395;53.168;18.156;2023-07-29T03:22:08;100351.58;;;11.44;85.23
76553;BME280;65395;53.168;18.156;2023-07-29T03:24:35;100349.21;;;11.43;85.14
76553;BME280;65395;53.168;18.156;2023-07-29T03:27:02;100350.79;;;11.43;85.11
76553;BME280;65395;53.168;18.156;2023-07-29T03:29:29;100350.16;;;11.43;85.10
76553;BME280;65395;53.168;18.156;2023-07-29T03:31:56;100353.23;;;11.44;85.08
76553;BME280;65395;53.168;18.156;2023-07-29T03:34:22;100352.03;;;11.42;85.06
76553;BME280;65395;53.168;18.156;2023-07-29T03:36:50;100352.10;;;11.44;85.24
76553;BME280;65395;53.168;18.156;2023-07-29T03:39:18;100349.52;;;11.45;85.31
76553;BME280;65395;53.168;18.156;2023-07-29T03:41:45;100356.27;;;11.47;85.33
76553;BME280;65395;53.168;18.156;2023-07-29T03:44:11;100356.09;;;11.49;85.27
76553;BME280;65395;53.168;18.156;2023-07-29T03:46:38;100352.34;;;11.53;85.48
76553;BME280;65395;53.168;18.156;2023-07-29T03:49:05;100351.41;;;11.57;85.57
76553;BME280;65395;53.168;18.156;2023-07-29T03:51:32;100353.65;;;11.62;85.74
76553;BME280;65395;53.168;18.156;2023-07-29T03:53:59;100353.50;;;11.68;85.75
76553;BME280;65395;53.168;18.156;2023-07-29T03:56:26;100352.98;;;11.72;85.66
76553;BME280;65395;53.168;18.156;2023-07-29T03:58:53;100355.54;;;11.76;85.72
76553;BME280;65395;53.168;18.156;2023-07-29T04:01:19;100359.45;;;11.82;85.83
76553;BME280;65395;53.168;18.156;2023-07-29T04:03:46;100362.92;;;11.88;85.92
76553;BME280;65395;53.168;18.156;2023-07-29T04:06:14;100362.68;;;11.93;85.93
76553;BME280;65395;53.168;18.156;2023-07-29T04:08:40;100364.16;;;12.00;85.88
76553;BME280;65395;53.168;18.156;2023-07-29T04:11:08;100362.42;;;12.06;85.93
76553;BME280;65395;53.168;18.156;2023-07-29T04:13:35;100360.48;;;12.12;85.95
76553;BME280;65395;53.168;18.156;2023-07-29T04:16:05;100362.98;;;12.20;86.20
76553;BME280;65395;53.168;18.156;2023-07-29T04:18:32;100364.36;;;12.28;86.34
76553;BME280;65395;53.168;18.156;2023-07-29T04:20:59;100366.15;;;12.37;86.28
76553;BME280;65395;53.168;18.156;2023-07-29T04:23:26;100367.91;;;12.46;86.42
76553;BME280;65395;53.168;18.156;2023-07-29T04:25:53;100370.86;;;12.57;86.47
76553;BME280;65395;53.168;18.156;2023-07-29T04:28:19;100373.91;;;12.67;86.52
76553;BME280;65395;53.168;18.156;2023-07-29T04:30:47;100372.30;;;12.76;86.46
76553;BME280;65395;53.168;18.156;2023-07-29T04:33:13;100377.23;;;12.86;86.57
76553;BME280;65395;53.168;18.156;2023-07-29T04:35:40;100377.45;;;12.95;86.70
76553;BME280;65395;53.168;18.156;2023-07-29T04:38:07;100382.10;;;13.05;86.59
76553;BME280;65395;53.168;18.156;2023-07-29T04:40:33;100384.19;;;13.16;86.61
76553;BME280;65395;53.168;18.156;2023-07-29T04:43:01;100385.27;;;13.26;86.68
76553;BME280;65395;53.168;18.156;2023-07-29T04:45:29;100388.20;;;13.37;86.56
76553;BME280;65395;53.168;18.156;2023-07-29T04:47:58;100389.85;;;13.49;86.50
76553;BME280;65395;53.168;18.156;2023-07-29T04:50:24;100393.30;;;13.59;86.57
76553;BME280;65395;53.168;18.156;2023-07-29T04:52:51;100392.27;;;13.70;86.47
76553;BME280;65395;53.168;18.156;2023-07-29T04:55:19;100392.67;;;13.83;86.57
76553;BME280;65395;53.168;18.156;2023-07-29T04:57:46;100398.73;;;13.96;86.69
76553;BME280;65395;53.168;18.156;2023-07-29T05:00:13;100398.74;;;14.09;86.80
76553;BME280;65395;53.168;18.156;2023-07-29T05:02:40;100401.50;;;14.22;86.69
76553;BME280;65395;53.168;18.156;2023-07-29T05:05:07;100404.69;;;14.36;86.75
76553;BME280;65395;53.168;18.156;2023-07-29T05:07:34;100404.80;;;14.51;86.49
76553;BME280;65395;53.168;18.156;2023-07-29T05:10:01;100403.32;;;14.67;86.35
76553;BME280;65395;53.168;18.156;2023-07-29T05:12:28;100403.29;;;14.83;86.12
76553;BME280;65395;53.168;18.156;2023-07-29T05:14:55;100408.41;;;14.95;85.92
76553;BME280;65395;53.168;18.156;2023-07-29T05:17:22;100406.14;;;15.07;85.82
76553;BME280;65395;53.168;18.156;2023-07-29T05:19:49;100408.52;;;15.17;85.69
76553;BME280;65395;53.168;18.156;2023-07-29T05:22:16;100400.98;;;15.25;85.50
76553;BME280;65395;53.168;18.156;2023-07-29T05:24:42;100397.91;;;15.32;85.35
76553;BME280;65395;53.168;18.156;2023-07-29T05:27:09;100398.83;;;15.40;85.24
76553;BME280;65395;53.168;18.156;2023-07-29T05:29:36;100398.95;;;15.46;85.08
76553;BME280;65395;53.168;18.156;2023-07-29T05:32:03;100397.38;;;15.53;84.92
76553;BME280;65395;53.168;18.156;2023-07-29T05:34:30;100404.23;;;15.58;84.70
76553;BME280;65395;53.168;18.156;2023-07-29T05:36:57;100407.30;;;15.67;84.54
76553;BME280;65395;53.168;18.156;2023-07-29T05:39:23;100408.73;;;15.72;84.19
76553;BME280;65395;53.168;18.156;2023-07-29T05:41:50;100411.71;;;15.77;84.10
76553;BME280;65395;53.168;18.156;2023-07-29T05:44:17;100408.45;;;15.83;83.85
76553;BME280;65395;53.168;18.156;2023-07-29T05:46:44;100403.68;;;15.90;83.77
76553;BME280;65395;53.168;18.156;2023-07-29T05:49:11;100405.66;;;15.99;83.65
76553;BME280;65395;53.168;18.156;2023-07-29T05:51:38;100402.74;;;16.07;83.42
76553;BME280;65395;53.168;18.156;2023-07-29T05:54:05;100402.13;;;16.13;83.24
76553;BME280;65395;53.168;18.156;2023-07-29T05:56:32;100403.21;;;16.20;83.19
76553;BME280;65395;53.168;18.156;2023-07-29T05:58:58;100403.27;;;16.28;82.94
76553;BME280;65395;53.168;18.156;2023-07-29T06:01:26;100404.08;;;16.37;82.76
76553;BME280;65395;53.168;18.156;2023-07-29T06:03:52;100408.71;;;16.45;82.62
76553;BME280;65395;53.168;18.156;2023-07-29T06:06:19;100409.77;;;16.53;82.27
76553;BME280;65395;53.168;18.156;2023-07-29T06:08:46;100413.97;;;16.60;82.22
76553;BME280;65395;53.168;18.156;2023-07-29T06:11:13;100414.52;;;16.68;82.11
76553;BME280;65395;53.168;18.156;2023-07-29T06:13:39;100415.80;;;16.74;81.82
76553;BME280;65395;53.168;18.156;2023-07-29T06:16:06;100410.38;;;16.81;81.58
76553;BME280;65395;53.168;18.156;2023-07-29T06:18:33;100415.27;;;16.87;81.22
76553;BME280;65395;53.168;18.156;2023-07-29T06:21:00;100415.07;;;16.92;81.12
76553;BME280;65395;53.168;18.156;2023-07-29T06:23:27;100416.48;;;16.98;81.00
76553;BME280;65395;53.168;18.156;2023-07-29T06:25:53;100417.61;;;17.05;80.75
76553;BME280;65395;53.168;18.156;2023-07-29T06:28:20;100414.39;;;17.12;80.55
76553;BME280;65395;53.168;18.156;2023-07-29T06:30:47;100415.21;;;17.19;80.37
76553;BME280;65395;53.168;18.156;2023-07-29T06:33:13;100412.42;;;17.27;80.11
76553;BME280;65395;53.168;18.156;2023-07-29T06:35:41;100412.16;;;17.35;80.00
76553;BME280;65395;53.168;18.156;2023-07-29T06:38:08;100413.23;;;17.44;79.75
76553;BME280;65395;53.168;18.156;2023-07-29T06:40:34;100408.77;;;17.51;79.69
76553;BME280;65395;53.168;18.156;2023-07-29T06:43:01;100408.63;;;17.60;79.45
76553;BME280;65395;53.168;18.156;2023-07-29T06:45:28;100412.37;;;17.68;78.85
76553;BME280;65395;53.168;18.156;2023-07-29T06:47:55;100412.63;;;17.75;78.90
76553;BME280;65395;53.168;18.156;2023-07-29T06:50:21;100416.30;;;17.80;78.67
76553;BME280;65395;53.168;18.156;2023-07-29T06:52:48;100416.77;;;17.86;78.58
76553;BME280;65395;53.168;18.156;2023-07-29T06:55:15;100417.83;;;17.93;78.22
76553;BME280;65395;53.168;18.156;2023-07-29T06:57:41;100417.58;;;18.01;77.98
76553;BME280;65395;53.168;18.156;2023-07-29T07:00:09;100414.42;;;18.08;77.89
76553;BME280;65395;53.168;18.156;2023-07-29T07:02:36;100410.89;;;18.16;77.73
76553;BME280;65395;53.168;18.156;2023-07-29T07:05:02;100412.17;;;18.24;77.53
76553;BME280;65395;53.168;18.156;2023-07-29T07:07:29;100410.73;;;18.34;76.90
76553;BME280;65395;53.168;18.156;2023-07-29T07:09:57;100410.48;;;18.41;76.77
76553;BME280;65395;53.168;18.156;2023-07-29T07:12:23;100406.46;;;18.50;76.40
76553;BME280;65395;53.168;18.156;2023-07-29T07:14:50;100406.98;;;18.61;76.61
76553;BME280;65395;53.168;18.156;2023-07-29T07:17:17;100404.83;;;18.73;76.31
76553;BME280;65395;53.168;18.156;2023-07-29T07:19:44;100404.70;;;18.83;75.74
76553;BME280;65395;53.168;18.156;2023-07-29T07:22:11;100403.06;;;18.94;75.57
76553;BME280;65395;53.168;18.156;2023-07-29T07:24:37;100408.85;;;19.04;75.28
76553;BME280;65395;53.168;18.156;2023-07-29T07:27:04;100407.42;;;19.15;75.02
76553;BME280;65395;53.168;18.156;2023-07-29T07:29:31;100407.27;;;19.22;74.64
76553;BME280;65395;53.168;18.156;2023-07-29T07:31:58;100409.21;;;19.30;74.46
76553;BME280;65395;53.168;18.156;2023-07-29T07:34:25;100408.36;;;19.38;74.17
76553;BME280;65395;53.168;18.156;2023-07-29T07:36:52;100405.86;;;19.47;74.23
76553;BME280;65395;53.168;18.156;2023-07-29T07:39:19;100405.48;;;19.57;74.03
76553;BME280;65395;53.168;18.156;2023-07-29T07:41:45;100403.02;;;19.67;73.66
76553;BME280;65395;53.168;18.156;2023-07-29T07:44:13;100398.59;;;19.79;73.37
76553;BME280;65395;53.168;18.156;2023-07-29T07:46:41;100399.14;;;19.92;73.02
76553;BME280;65395;53.168;18.156;2023-07-29T07:49:08;100398.34;;;20.02;72.84
76553;BME280;65395;53.168;18.156;2023-07-29T07:51:35;100394.63;;;20.12;72.02
76553;BME280;65395;53.168;18.156;2023-07-29T07:54:02;100398.35;;;20.22;71.83
76553;BME280;65395;53.168;18.156;2023-07-29T07:56:28;100398.17;;;20.32;71.24
76553;BME280;65395;53.168;18.156;2023-07-29T07:58:55;100393.65;;;20.41;70.66
76553;BME280;65395;53.168;18.156;2023-07-29T08:01:22;100388.53;;;20.49;70.84
76553;BME280;65395;53.168;18.156;2023-07-29T08:03:48;100390.27;;;20.58;70.34
76553;BME280;65395;53.168;18.156;2023-07-29T08:06:15;100388.23;;;20.64;70.20
76553;BME280;65395;53.168;18.156;2023-07-29T08:08:41;100387.13;;;20.72;69.72
76553;BME280;65395;53.168;18.156;2023-07-29T08:11:08;100386.71;;;20.80;69.50
76553;BME280;65395;53.168;18.156;2023-07-29T08:13:35;100385.26;;;20.89;69.17
76553;BME280;65395;53.168;18.156;2023-07-29T08:16:01;100384.89;;;21.00;68.76
76553;BME280;65395;53.168;18.156;2023-07-29T08:18:28;100382.61;;;21.10;67.83
76553;BME280;65395;53.168;18.156;2023-07-29T08:20:56;100385.31;;;21.16;67.60
76553;BME280;65395;53.168;18.156;2023-07-29T08:23:25;100381.16;;;21.22;67.24
76553;BME280;65395;53.168;18.156;2023-07-29T08:25:54;100375.27;;;21.27;66.98
76553;BME280;65395;53.168;18.156;2023-07-29T08:28:23;100377.95;;;21.33;65.49
76553;BME280;65395;53.168;18.156;2023-07-29T08:30:50;100371.64;;;21.37;65.47
76553;BME280;65395;53.168;18.156;2023-07-29T08:33:17;100370.58;;;21.44;65.77
76553;BME280;65395;53.168;18.156;2023-07-29T08:35:44;100369.33;;;21.54;65.43
76553;BME280;65395;53.168;18.156;2023-07-29T08:38:11;100370.33;;;21.66;64.80
76553;BME280;65395;53.168;18.156;2023-07-29T08:40:45;100366.80;;;21.79;64.28
76553;BME280;65395;53.168;18.156;2023-07-29T08:43:18;100364.27;;;21.91;63.56
76553;BME280;65395;53.168;18.156;2023-07-29T08:45:45;100362.59;;;22.06;63.45
76553;BME280;65395;53.168;18.156;2023-07-29T08:48:15;100358.21;;;22.22;63.10
76553;BME280;65395;53.168;18.156;2023-07-29T08:50:46;100357.75;;;22.39;62.23
76553;BME280;65395;53.168;18.156;2023-07-29T08:53:13;100353.98;;;22.56;62.11
76553;BME280;65395;53.168;18.156;2023-07-29T08:55:40;100354.04;;;22.71;61.32
76553;BME280;65395;53.168;18.156;2023-07-29T08:58:07;100357.38;;;22.87;60.80
76553;BME280;65395;53.168;18.156;2023-07-29T09:00:34;100355.40;;;23.03;60.56
76553;BME280;65395;53.168;18.156;2023-07-29T09:03:01;100353.98;;;23.22;59.96
76553;BME280;65395;53.168;18.156;2023-07-29T09:05:33;100354.64;;;23.44;59.37
76553;BME280;65395;53.168;18.156;2023-07-29T09:08:02;100354.41;;;23.64;57.92
76553;BME280;65395;53.168;18.156;2023-07-29T09:10:29;100355.86;;;23.82;58.30
76553;BME280;65395;53.168;18.156;2023-07-29T09:12:56;100354.50;;;23.96;57.79
76553;BME280;65395;53.168;18.156;2023-07-29T09:15:27;100346.55;;;24.07;57.15
76553;BME280;65395;53.168;18.156;2023-07-29T09:17:56;100346.34;;;24.16;56.75
76553;BME280;65395;53.168;18.156;2023-07-29T09:20:27;100348.17;;;24.24;55.84
76553;BME280;65395;53.168;18.156;2023-07-29T09:22:57;100343.34;;;24.31;56.34
76553;BME280;65395;53.168;18.156;2023-07-29T09:25:26;100345.20;;;24.46;55.58
76553;BME280;65395;53.168;18.156;2023-07-29T09:27:58;100342.73;;;24.64;55.26
76553;BME280;65395;53.168;18.156;2023-07-29T09:30:26;100341.65;;;24.84;54.29
76553;BME280;65395;53.168;18.156;2023-07-29T09:32:57;100342.75;;;25.04;53.18
76553;BME280;65395;53.168;18.156;2023-07-29T09:35:28;100344.17;;;25.21;53.18
76553;BME280;65395;53.168;18.156;2023-07-29T09:37:54;100339.80;;;25.40;52.07
76553;BME280;65395;53.168;18.156;2023-07-29T09:40:21;100347.70;;;25.55;52.28
76553;BME280;65395;53.168;18.156;2023-07-29T09:42:51;100344.85;;;25.69;52.00
76553;BME280;65395;53.168;18.156;2023-07-29T09:45:20;100340.70;;;25.80;51.21
76553;BME280;65395;53.168;18.156;2023-07-29T09:47:47;100339.88;;;25.88;50.56
76553;BME280;65395;53.168;18.156;2023-07-29T09:50:15;100340.54;;;25.95;50.00
76553;BME280;65395;53.168;18.156;2023-07-29T09:52:42;100336.84;;;26.04;49.99
76553;BME280;65395;53.168;18.156;2023-07-29T09:55:12;100331.84;;;26.17;50.07
76553;BME280;65395;53.168;18.156;2023-07-29T09:57:40;100332.15;;;26.26;49.11
76553;BME280;65395;53.168;18.156;2023-07-29T10:00:07;100328.31;;;26.24;49.14
76553;BME280;65395;53.168;18.156;2023-07-29T10:02:39;100324.27;;;26.19;49.12
76553;BME280;65395;53.168;18.156;2023-07-29T10:05:07;100323.63;;;26.07;49.47
76553;BME280;65395;53.168;18.156;2023-07-29T10:07:39;100324.80;;;25.94;49.37
76553;BME280;65395;53.168;18.156;2023-07-29T10:10:07;100323.30;;;25.88;49.46
76553;BME280;65395;53.168;18.156;2023-07-29T10:12:35;100318.27;;;25.87;49.64
76553;BME280;65395;53.168;18.156;2023-07-29T10:15:05;100316.77;;;25.84;49.21
76553;BME280;65395;53.168;18.156;2023-07-29T10:17:35;100313.27;;;25.88;49.03
76553;BME280;65395;53.168;18.156;2023-07-29T10:20:05;100313.02;;;26.01;48.45
76553;BME280;65395;53.168;18.156;2023-07-29T10:22:37;100309.66;;;26.09;48.26
76553;BME280;65395;53.168;18.156;2023-07-29T10:25:09;100306.97;;;26.19;48.11
76553;BME280;65395;53.168;18.156;2023-07-29T10:27:49;100306.56;;;26.31;47.93
76553;BME280;65395;53.168;18.156;2023-07-29T10:30:16;100297.92;;;26.46;47.14
76553;BME280;65395;53.168;18.156;2023-07-29T10:32:44;100308.65;;;26.56;46.65
76553;BME280;65395;53.168;18.156;2023-07-29T10:35:12;100301.58;;;26.69;46.82
76553;BME280;65395;53.168;18.156;2023-07-29T10:37:40;100303.63;;;26.89;46.19
76553;BME280;65395;53.168;18.156;2023-07-29T10:40:08;100306.96;;;27.08;46.04
76553;BME280;65395;53.168;18.156;2023-07-29T10:42:36;100310.38;;;27.28;45.52
76553;BME280;65395;53.168;18.156;2023-07-29T10:45:17;100309.67;;;27.42;45.07
76553;BME280;65395;53.168;18.156;2023-07-29T10:47:44;100309.56;;;27.62;44.99
76553;BME280;65395;53.168;18.156;2023-07-29T10:50:20;100313.66;;;27.90;43.69
76553;BME280;65395;53.168;18.156;2023-07-29T10:52:50;100305.05;;;28.13;43.51
76553;BME280;65395;53.168;18.156;2023-07-29T10:55:28;100299.30;;;28.33;43.02
76553;BME280;65395;53.168;18.156;2023-07-29T10:58:07;100293.66;;;28.54;43.19
76553;BME280;65395;53.168;18.156;2023-07-29T11:00:35;100292.84;;;28.78;42.20
76553;BME280;65395;53.168;18.156;2023-07-29T11:03:04;100288.50;;;28.86;42.22
76553;BME280;65395;53.168;18.156;2023-07-29T11:05:42;100286.08;;;28.87;42.26
76553;BME280;65395;53.168;18.156;2023-07-29T11:08:20;100282.30;;;28.86;42.12
76553;BME280;65395;53.168;18.156;2023-07-29T11:11:06;100278.84;;;28.93;41.92
76553;BME280;65395;53.168;18.156;2023-07-29T11:13:36;100274.08;;;28.86;41.87
76553;BME280;65395;53.168;18.156;2023-07-29T11:16:03;100275.69;;;28.79;41.51
76553;BME280;65395;53.168;18.156;2023-07-29T11:18:34;100266.95;;;28.82;41.76
76553;BME280;65395;53.168;18.156;2023-07-29T11:21:02;100262.40;;;28.85;41.49
76553;BME280;65395;53.168;18.156;2023-07-29T11:23:32;100262.30;;;28.82;41.25
76553;BME280;65395;53.168;18.156;2023-07-29T11:26:00;100252.84;;;28.86;41.39
76553;BME280;65395;53.168;18.156;2023-07-29T11:28:28;100252.49;;;29.03;41.03
76553;BME280;65395;53.168;18.156;2023-07-29T11:30:55;100252.96;;;29.14;40.38
76553;BME280;65395;53.168;18.156;2023-07-29T11:33:24;100249.23;;;29.15;40.74
76553;BME280;65395;53.168;18.156;2023-07-29T11:35:52;100250.13;;;29.01;40.36
76553;BME280;65395;53.168;18.156;2023-07-29T11:38:20;100247.96;;;28.82;40.44
76553;BME280;65395;53.168;18.156;2023-07-29T11:40:56;100244.39;;;28.78;40.36
76553;BME280;65395;53.168;18.156;2023-07-29T11:43:23;100238.09;;;28.87;40.47
76553;BME280;65395;53.168;18.156;2023-07-29T11:45:51;100228.55;;;29.02;40.32
76553;BME280;65395;53.168;18.156;2023-07-29T11:48:18;100227.85;;;29.09;39.89
76553;BME280;65395;53.168;18.156;2023-07-29T11:50:53;100221.13;;;29.16;40.01
76553;BME280;65395;53.168;18.156;2023-07-29T11:53:21;100221.95;;;29.32;39.78
76553;BME280;65395;53.168;18.156;2023-07-29T11:55:51;100218.16;;;29.43;39.59
76553;BME280;65395;53.168;18.156;2023-07-29T11:58:20;100217.63;;;29.48;39.35
76553;BME280;65395;53.168;18.156;2023-07-29T12:00:47;100212.73;;;29.62;39.05
76553;BME280;65395;53.168;18.156;2023-07-29T12:03:16;100210.64;;;29.82;39.10
76553;BME280;65395;53.168;18.156;2023-07-29T12:05:44;100209.14;;;30.05;38.80
76553;BME280;65395;53.168;18.156;2023-07-29T12:08:11;100214.92;;;30.24;38.51
76553;BME280;65395;53.168;18.156;2023-07-29T12:10:38;100210.17;;;30.22;38.02
76553;BME280;65395;53.168;18.156;2023-07-29T12:13:07;100200.08;;;30.18;38.01
76553;BME280;65395;53.168;18.156;2023-07-29T12:15:34;100198.84;;;30.16;38.03
76553;BME280;65395;53.168;18.156;2023-07-29T12:18:01;100195.17;;;30.28;37.83
76553;BME280;65395;53.168;18.156;2023-07-29T12:20:29;100192.56;;;30.33;38.09
76553;BME280;65395;53.168;18.156;2023-07-29T12:22:57;100187.55;;;30.38;37.94
76553;BME280;65395;53.168;18.156;2023-07-29T12:25:26;100181.29;;;30.37;37.58
76553;BME280;65395;53.168;18.156;2023-07-29T12:27:53;100172.05;;;30.27;37.96
76553;BME280;65395;53.168;18.156;2023-07-29T12:30:21;100168.92;;;30.22;38.13
76553;BME280;65395;53.168;18.156;2023-07-29T12:32:48;100160.61;;;30.19;38.00
76553;BME280;65395;53.168;18.156;2023-07-29T12:35:15;100161.02;;;30.14;37.98
76553;BME280;65395;53.168;18.156;2023-07-29T12:37:42;100158.79;;;30.20;38.10
76553;BME280;65395;53.168;18.156;2023-07-29T12:40:22;100161.31;;;30.12;38.28
76553;BME280;65395;53.168;18.156;2023-07-29T12:42:50;100161.23;;;30.04;38.17
76553;BME280;65395;53.168;18.156;2023-07-29T12:45:18;100151.86;;;29.97;38.52